sensor_id;sensor_type;location;lat;lon;timestamp;pressure;altitude;pressure_sealevel;temperature;humidity
31346;BME280;21711;49.708;18.568;2022-12-28T00:01:47;98264.50;;;0.83;100.00
31346;BME280;21711;49.708;18.568;2022-12-28T00:04:14;98267.72;;;1.07;100.00
31346;BME280;21711;49.708;18.568;2022-12-28T00:06:41;98266.88;;;1.21;100.00
31346;BME280;21711;49.708;18.568;2022-12-28T00:09:10;98268.50;;;1.22;100.00
31346;BME280;21711;49.708;18.568;2022-12-28T00:11:39;98259.13;;;1.06;100.00
31346;BME280;21711;49.708;18.568;2022-12-28T00:14:06;98263.31;;;0.85;100.00
31346;BME280;21711;49.708;18.568;2022-12-28T00:16:39;98258.00;;;0.72;100.00
31346;BME280;21711;49.708;18.568;2022-12-28T00:19:15;98261.03;;;0.75;100.00
31346;BME280;21711;49.708;18.568;2022-12-28T00:21:45;98262.81;;;0.75;100.00
31346;BME280;21711;49.708;18.568;2022-12-28T00:24:21;98258.84;;;0.79;100.00
31346;BME280;21711;49.708;18.568;2022-12-28T00:26:49;98261.81;;;1.13;100.00
31346;BME280;21711;49.708;18.568;2022-12-28T00:29:18;98255.16;;;1.10;100.00
31346;BME280;21711;49.708;18.568;2022-12-28T00:31:46;98259.31;;;1.04;100.00
31346;BME280;21711;49.708;18.568;2022-12-28T00:34:13;98256.38;;;0.93;100.00
31346;BME280;21711;49.708;18.568;2022-12-28T00:36:41;98254.84;;;0.98;100.00
31346;BME280;21711;49.708;18.568;2022-12-28T00:39:28;98259.00;;;1.14;100.00
31346;BME280;21711;49.708;18.568;2022-12-28T00:41:56;98267.25;;;1.18;100.00
31346;BME280;21711;49.708;18.568;2022-12-28T00:44:23;98272.47;;;1.18;100.00
31346;BME280;21711;49.708;18.568;2022-12-28T00:46:50;98272.59;;;1.31;100.00
31346;BME280;21711;49.708;18.568;2022-12-28T00:49:18;98275.13;;;1.25;100.00
31346;BME280;21711;49.708;18.568;2022-12-28T00:51:45;98271.97;;;1.08;100.00
31346;BME280;21711;49.708;18.568;2022-12-28T00:54:13;98270.22;;;0.93;100.00
31346;BME280;21711;49.708;18.568;2022-12-28T00:56:41;98267.66;;;0.78;100.00
31346;BME280;21711;49.708;18.568;2022-12-28T00:59:09;98269.19;;;0.72;100.00
31346;BME280;21711;49.708;18.568;2022-12-28T01:01:36;98269.03;;;0.59;100.00
31346;BME280;21711;49.708;18.568;2022-12-28T01:04:04;98267.78;;;0.55;100.00
31346;BME280;21711;49.708;18.568;2022-12-28T01:06:31;98271.78;;;0.50;100.00
31346;BME280;21711;49.708;18.568;2022-12-28T01:08:59;98267.09;;;0.46;100.00
31346;BME280;21711;49.708;18.568;2022-12-28T01:11:30;98264.06;;;0.42;100.00
31346;BME280;21711;49.708;18.568;2022-12-28T01:14:00;98267.00;;;0.54;100.00
31346;BME280;21711;49.708;18.568;2022-12-28T01:16:32;98266.91;;;0.62;100.00
31346;BME280;21711;49.708;18.568;2022-12-28T01:19:03;98269.91;;;0.81;100.00
31346;BME280;21711;49.708;18.568;2022-12-28T01:21:33;98273.31;;;0.82;100.00
31346;BME280;21711;49.708;18.568;2022-12-28T01:24:04;98264.25;;;0.77;100.00
31346;BME280;21711;49.708;18.568;2022-12-28T01:26:32;98262.88;;;0.60;100.00
31346;BME280;21711;49.708;18.568;2022-12-28T01:28:59;98270.59;;;0.53;100.00
31346;BME280;21711;49.708;18.568;2022-12-28T01:31:27;98263.63;;;0.38;100.00
31346;BME280;21711;49.708;18.568;2022-12-28T01:33:54;98262.47;;;0.26;100.00
31346;BME280;21711;49.708;18.568;2022-12-28T01:36:25;98265.53;;;0.15;100.00
31346;BME280;21711;49.708;18.568;2022-12-28T01:38:56;98257.00;;;0.06;100.00
31346;BME280;21711;49.708;18.568;2022-12-28T01:41:26;98262.91;;;-0.01;100.00
31346;BME280;21711;49.708;18.568;2022-12-28T01:57:26;98252.16;;;-0.12;100.00
31346;BME280;21711;49.708;18.568;2022-12-28T02:00:09;98247.13;;;-0.14;100.00
31346;BME280;21711;49.708;18.568;2022-12-28T02:02:48;98236.56;;;-0.12;100.00
31346;BME280;21711;49.708;18.568;2022-12-28T02:05:18;98231.44;;;-0.06;100.00
31346;BME280;21711;49.708;18.568;2022-12-28T02:08:03;98229.63;;;0.10;100.00
31346;BME280;21711;49.708;18.568;2022-12-28T02:10:33;98226.94;;;0.18;100.00
31346;BME280;21711;49.708;18.568;2022-12-28T02:13:12;98219.91;;;0.34;100.00
31346;BME280;21711;49.708;18.568;2022-12-28T02:15:39;98224.78;;;0.22;100.00
31346;BME280;21711;49.708;18.568;2022-12-28T02:18:06;98217.94;;;0.36;100.00
31346;BME280;21711;49.708;18.568;2022-12-28T02:21:16;98213.91;;;0.70;100.00
31346;BME280;21711;49.708;18.568;2022-12-28T02:30:09;98200.34;;;0.38;100.00
31346;BME280;21711;49.708;18.568;2022-12-28T02:32:59;98182.47;;;0.13;100.00
31346;BME280;21711;49.708;18.568;2022-12-28T02:35:50;98178.88;;;-0.01;100.00
31346;BME280;21711;49.708;18.568;2022-12-28T02:41:06;98162.59;;;-0.40;100.00
31346;BME280;21711;49.708;18.568;2022-12-28T02:43:35;98172.16;;;-0.41;100.00
31346;BME280;21711;49.708;18.568;2022-12-28T02:46:19;98177.66;;;-0.20;100.00
31346;BME280;21711;49.708;18.568;2022-12-28T02:49:26;98181.59;;;-0.24;100.00
31346;BME280;21711;49.708;18.568;2022-12-28T02:52:43;98180.13;;;-0.42;100.00
31346;BME280;21711;49.708;18.568;2022-12-28T03:08:25;98178.03;;;-0.77;100.00
31346;BME280;21711;49.708;18.568;2022-12-28T03:11:13;98171.78;;;-0.68;100.00
31346;BME280;21711;49.708;18.568;2022-12-28T03:13:55;98167.50;;;-0.30;100.00
31346;BME280;21711;49.708;18.568;2022-12-28T03:16:43;98166.34;;;-0.28;100.00
31346;BME280;21711;49.708;18.568;2022-12-28T03:19:42;98168.25;;;-0.21;100.00
31346;BME280;21711;49.708;18.568;2022-12-28T03:22:31;98162.47;;;-0.17;100.00
31346;BME280;21711;49.708;18.568;2022-12-28T03:25:22;98160.78;;;-0.40;100.00
31346;BME280;21711;49.708;18.568;2022-12-28T03:28:14;98162.59;;;-0.40;100.00
31346;BME280;21711;49.708;18.568;2022-12-28T03:31:10;98152.19;;;-0.40;100.00
31346;BME280;21711;49.708;18.568;2022-12-28T03:33:51;98155.41;;;-0.38;100.00
31346;BME280;21711;49.708;18.568;2022-12-28T03:36:29;98159.25;;;-0.34;100.00
31346;BME280;21711;49.708;18.568;2022-12-28T03:39:15;98154.69;;;-0.32;100.00
31346;BME280;21711;49.708;18.568;2022-12-28T03:41:54;98157.91;;;-0.15;100.00
31346;BME280;21711;49.708;18.568;2022-12-28T03:45:08;98155.94;;;0.03;100.00
31346;BME280;21711;49.708;18.568;2022-12-28T03:47:39;98159.75;;;0.07;100.00
31346;BME280;21711;49.708;18.568;2022-12-28T03:50:09;98148.25;;;0.16;100.00
31346;BME280;21711;49.708;18.568;2022-12-28T03:52:37;98145.44;;;-0.04;100.00
31346;BME280;21711;49.708;18.568;2022-12-28T03:55:05;98142.94;;;-0.12;100.00
31346;BME280;21711;49.708;18.568;2022-12-28T03:57:33;98139.00;;;-0.23;100.00
31346;BME280;21711;49.708;18.568;2022-12-28T04:00:03;98126.69;;;0.01;100.00
31346;BME280;21711;49.708;18.568;2022-12-28T04:02:41;98127.44;;;0.16;100.00
31346;BME280;21711;49.708;18.568;2022-12-28T04:05:10;98117.09;;;0.23;100.00
31346;BME280;21711;49.708;18.568;2022-12-28T04:07:39;98110.13;;;0.23;100.00
31346;BME280;21711;49.708;18.568;2022-12-28T04:10:06;98105.06;;;0.37;100.00
31346;BME280;21711;49.708;18.568;2022-12-28T04:12:34;98103.91;;;0.24;100.00
31346;BME280;21711;49.708;18.568;2022-12-28T04:15:22;98094.78;;;0.13;100.00
31346;BME280;21711;49.708;18.568;2022-12-28T04:17:49;98094.53;;;0.08;100.00
31346;BME280;21711;49.708;18.568;2022-12-28T04:20:17;98100.84;;;-0.01;100.00
31346;BME280;21711;49.708;18.568;2022-12-28T04:22:44;98089.66;;;-0.02;100.00
31346;BME280;21711;49.708;18.568;2022-12-28T04:25:11;98096.22;;;-0.21;100.00
31346;BME280;21711;49.708;18.568;2022-12-28T04:27:39;98098.41;;;-0.40;100.00
31346;BME280;21711;49.708;18.568;2022-12-28T04:30:16;98090.69;;;-0.48;100.00
31346;BME280;21711;49.708;18.568;2022-12-28T04:32:43;98091.59;;;-0.41;100.00
31346;BME280;21711;49.708;18.568;2022-12-28T04:35:12;98087.31;;;-0.33;100.00
31346;BME280;21711;49.708;18.568;2022-12-28T04:37:47;98090.59;;;-0.24;100.00
31346;BME280;21711;49.708;18.568;2022-12-28T04:40:14;98091.28;;;-0.16;100.00
31346;BME280;21711;49.708;18.568;2022-12-28T04:42:41;98086.47;;;-0.19;100.00
31346;BME280;21711;49.708;18.568;2022-12-28T04:45:09;98084.84;;;-0.20;100.00
31346;BME280;21711;49.708;18.568;2022-12-28T04:47:36;98083.41;;;-0.22;100.00
31346;BME280;21711;49.708;18.568;2022-12-28T04:50:04;98086.66;;;-0.35;100.00
31346;BME280;21711;49.708;18.568;2022-12-28T04:52:33;98087.38;;;-0.42;100.00
31346;BME280;21711;49.708;18.568;2022-12-28T04:55:00;98083.16;;;-0.28;100.00
31346;BME280;21711;49.708;18.568;2022-12-28T04:57:27;98081.78;;;-0.23;100.00
31346;BME280;21711;49.708;18.568;2022-12-28T04:59:54;98078.03;;;-0.21;100.00
31346;BME280;21711;49.708;18.568;2022-12-28T05:02:22;98074.81;;;-0.23;100.00
31346;BME280;21711;49.708;18.568;2022-12-28T05:04:49;98081.91;;;-0.32;100.00
31346;BME280;21711;49.708;18.568;2022-12-28T05:07:16;98081.28;;;-0.19;100.00
31346;BME280;21711;49.708;18.568;2022-12-28T05:09:43;98068.78;;;-0.23;100.00
31346;BME280;21711;49.708;18.568;2022-12-28T05:12:11;98062.69;;;-0.16;100.00
31346;BME280;21711;49.708;18.568;2022-12-28T05:14:38;98056.81;;;-0.03;100.00
31346;BME280;21711;49.708;18.568;2022-12-28T05:17:05;98051.75;;;-0.11;100.00
31346;BME280;21711;49.708;18.568;2022-12-28T05:19:32;98063.69;;;-0.17;100.00
31346;BME280;21711;49.708;18.568;2022-12-28T05:22:00;98073.72;;;-0.14;100.00
31346;BME280;21711;49.708;18.568;2022-12-28T05:24:27;98065.47;;;-0.17;100.00
31346;BME280;21711;49.708;18.568;2022-12-28T05:26:54;98059.41;;;-0.24;100.00
31346;BME280;21711;49.708;18.568;2022-12-28T05:29:21;98065.47;;;-0.17;100.00
31346;BME280;21711;49.708;18.568;2022-12-28T05:31:49;98068.06;;;-0.17;100.00
31346;BME280;21711;49.708;18.568;2022-12-28T05:34:16;98059.81;;;-0.06;100.00
31346;BME280;21711;49.708;18.568;2022-12-28T05:36:43;98062.78;;;-0.24;100.00
31346;BME280;21711;49.708;18.568;2022-12-28T05:39:11;98054.81;;;-0.22;100.00
31346;BME280;21711;49.708;18.568;2022-12-28T05:41:38;98049.78;;;-0.24;100.00
31346;BME280;21711;49.708;18.568;2022-12-28T05:44:05;98062.44;;;-0.21;100.00
31346;BME280;21711;49.708;18.568;2022-12-28T05:46:33;98059.66;;;-0.19;100.00
31346;BME280;21711;49.708;18.568;2022-12-28T05:49:01;98050.09;;;-0.34;100.00
31346;BME280;21711;49.708;18.568;2022-12-28T05:51:31;98052.69;;;-0.34;100.00
31346;BME280;21711;49.708;18.568;2022-12-28T05:54:01;98047.56;;;-0.27;100.00
31346;BME280;21711;49.708;18.568;2022-12-28T05:56:31;98042.94;;;-0.47;100.00
31346;BME280;21711;49.708;18.568;2022-12-28T05:59:01;98040.88;;;-0.51;100.00
31346;BME280;21711;49.708;18.568;2022-12-28T06:01:38;98033.72;;;-0.64;100.00
31346;BME280;21711;49.708;18.568;2022-12-28T06:04:13;98028.53;;;-0.64;100.00
31346;BME280;21711;49.708;18.568;2022-12-28T06:06:41;98026.94;;;-0.65;100.00
31346;BME280;21711;49.708;18.568;2022-12-28T06:09:08;98031.38;;;-0.44;100.00
31346;BME280;21711;49.708;18.568;2022-12-28T06:11:36;98013.91;;;-0.50;100.00
31346;BME280;21711;49.708;18.568;2022-12-28T06:14:03;98012.94;;;-0.49;100.00
31346;BME280;21711;49.708;18.568;2022-12-28T06:16:38;98006.31;;;-0.52;100.00
31346;BME280;21711;49.708;18.568;2022-12-28T06:19:09;98011.63;;;-0.38;100.00
31346;BME280;21711;49.708;18.568;2022-12-28T06:21:38;98009.63;;;-0.58;100.00
31346;BME280;21711;49.708;18.568;2022-12-28T06:24:07;98011.59;;;-0.60;100.00
31346;BME280;21711;49.708;18.568;2022-12-28T06:26:37;97998.53;;;-0.67;100.00
31346;BME280;21711;49.708;18.568;2022-12-28T06:29:05;98007.22;;;-0.75;100.00
31346;BME280;21711;49.708;18.568;2022-12-28T06:31:36;98002.38;;;-0.78;100.00
31346;BME280;21711;49.708;18.568;2022-12-28T06:34:07;98005.81;;;-0.77;100.00
31346;BME280;21711;49.708;18.568;2022-12-28T06:36:41;98005.41;;;-0.74;100.00
31346;BME280;21711;49.708;18.568;2022-12-28T06:39:12;98001.22;;;-0.75;100.00
31346;BME280;21711;49.708;18.568;2022-12-28T06:41:40;98004.00;;;-0.77;100.00
31346;BME280;21711;49.708;18.568;2022-12-28T06:44:11;97998.88;;;-0.70;100.00
31346;BME280;21711;49.708;18.568;2022-12-28T06:46:39;98005.84;;;-0.56;100.00
31346;BME280;21711;49.708;18.568;2022-12-28T06:49:06;98001.38;;;-0.47;100.00
31346;BME280;21711;49.708;18.568;2022-12-28T06:51:36;97991.28;;;-0.35;100.00
31346;BME280;21711;49.708;18.568;2022-12-28T06:54:07;98000.53;;;-0.32;100.00
31346;BME280;21711;49.708;18.568;2022-12-28T06:56:36;97998.31;;;-0.14;100.00
31346;BME280;21711;49.708;18.568;2022-12-28T06:59:03;97996.13;;;-0.10;100.00
31346;BME280;21711;49.708;18.568;2022-12-28T07:01:38;97992.53;;;-0.09;100.00
31346;BME280;21711;49.708;18.568;2022-12-28T07:04:08;97991.44;;;0.01;100.00
31346;BME280;21711;49.708;18.568;2022-12-28T07:06:40;97984.94;;;0.11;100.00
31346;BME280;21711;49.708;18.568;2022-12-28T07:09:11;97988.00;;;0.22;100.00
31346;BME280;21711;49.708;18.568;2022-12-28T07:11:40;97990.50;;;0.30;100.00
31346;BME280;21711;49.708;18.568;2022-12-28T07:14:08;97990.50;;;0.30;100.00
31346;BME280;21711;49.708;18.568;2022-12-28T07:16:36;97983.25;;;0.54;100.00
31346;BME280;21711;49.708;18.568;2022-12-28T07:19:02;97983.19;;;0.76;100.00
31346;BME280;21711;49.708;18.568;2022-12-28T07:21:33;97990.13;;;0.97;100.00
31346;BME280;21711;49.708;18.568;2022-12-28T07:24:01;97983.44;;;1.23;100.00
31346;BME280;21711;49.708;18.568;2022-12-28T07:26:32;97989.47;;;1.30;100.00
31346;BME280;21711;49.708;18.568;2022-12-28T07:29:01;97982.47;;;1.31;100.00
31346;BME280;21711;49.708;18.568;2022-12-28T07:31:33;97977.25;;;1.31;100.00
31346;BME280;21711;49.708;18.568;2022-12-28T07:34:10;97967.50;;;1.53;100.00
31346;BME280;21711;49.708;18.568;2022-12-28T07:36:38;97966.94;;;1.65;100.00
31346;BME280;21711;49.708;18.568;2022-12-28T07:39:05;97960.34;;;1.69;100.00
31346;BME280;21711;49.708;18.568;2022-12-28T07:41:34;97963.97;;;1.81;100.00
31346;BME280;21711;49.708;18.568;2022-12-28T07:44:30;97961.19;;;2.03;100.00
31346;BME280;21711;49.708;18.568;2022-12-28T07:47:04;97954.16;;;2.04;100.00
31346;BME280;21711;49.708;18.568;2022-12-28T07:49:31;97964.78;;;2.09;100.00
31346;BME280;21711;49.708;18.568;2022-12-28T07:51:58;97953.38;;;2.17;100.00
31346;BME280;21711;49.708;18.568;2022-12-28T07:54:26;97953.34;;;2.37;100.00
31346;BME280;21711;49.708;18.568;2022-12-28T07:56:53;97953.75;;;2.47;100.00
31346;BME280;21711;49.708;18.568;2022-12-28T07:59:20;97963.75;;;2.64;98.34
31346;BME280;21711;49.708;18.568;2022-12-28T08:01:55;97967.34;;;2.83;100.00
31346;BME280;21711;49.708;18.568;2022-12-28T08:04:22;97965.47;;;3.11;94.56
31346;BME280;21711;49.708;18.568;2022-12-28T08:06:49;97952.00;;;3.07;98.49
31346;BME280;21711;49.708;18.568;2022-12-28T08:09:16;97954.94;;;3.31;95.69
31346;BME280;21711;49.708;18.568;2022-12-28T08:11:45;97951.19;;;3.59;91.51
31346;BME280;21711;49.708;18.568;2022-12-28T08:14:14;97950.25;;;3.79;86.88
31346;BME280;21711;49.708;18.568;2022-12-28T08:16:43;97949.75;;;4.21;86.03
31346;BME280;21711;49.708;18.568;2022-12-28T08:19:11;97956.66;;;4.59;87.14
31346;BME280;21711;49.708;18.568;2022-12-28T08:21:44;97962.78;;;5.47;84.39
31346;BME280;21711;49.708;18.568;2022-12-28T08:24:18;97957.97;;;5.44;80.06
31346;BME280;21711;49.708;18.568;2022-12-28T08:26:46;97952.28;;;6.56;74.68
31346;BME280;21711;49.708;18.568;2022-12-28T08:29:19;97956.06;;;7.83;69.38
31346;BME280;21711;49.708;18.568;2022-12-28T08:31:48;97961.56;;;9.29;65.12
31346;BME280;21711;49.708;18.568;2022-12-28T08:34:20;97966.78;;;10.77;60.13
31346;BME280;21711;49.708;18.568;2022-12-28T08:36:54;97962.19;;;11.16;53.59
31346;BME280;21711;49.708;18.568;2022-12-28T08:39:21;97964.44;;;10.86;52.68
31346;BME280;21711;49.708;18.568;2022-12-28T08:41:49;97957.22;;;9.18;53.75
31346;BME280;21711;49.708;18.568;2022-12-28T08:44:16;97960.56;;;8.34;58.67
31346;BME280;21711;49.708;18.568;2022-12-28T08:46:43;97964.28;;;7.87;61.09
31346;BME280;21711;49.708;18.568;2022-12-28T08:49:11;97956.72;;;7.32;61.97
31346;BME280;21711;49.708;18.568;2022-12-28T08:51:40;97955.47;;;7.81;64.04
31346;BME280;21711;49.708;18.568;2022-12-28T08:54:10;97965.47;;;8.48;64.21
31346;BME280;21711;49.708;18.568;2022-12-28T08:56:40;97954.34;;;8.80;62.64
31346;BME280;21711;49.708;18.568;2022-12-28T08:59:13;97961.09;;;8.19;65.01
31346;BME280;21711;49.708;18.568;2022-12-28T09:01:41;97955.22;;;7.36;60.58
31346;BME280;21711;49.708;18.568;2022-12-28T09:04:18;97957.41;;;6.99;65.06
31346;BME280;21711;49.708;18.568;2022-12-28T09:06:46;97965.06;;;6.40;64.17
31346;BME280;21711;49.708;18.568;2022-12-28T09:09:17;97965.25;;;6.03;67.28
31346;BME280;21711;49.708;18.568;2022-12-28T09:11:46;97965.06;;;5.86;66.99
31346;BME280;21711;49.708;18.568;2022-12-28T09:14:15;97964.69;;;5.70;67.99
31346;BME280;21711;49.708;18.568;2022-12-28T09:16:52;97960.72;;;5.49;69.16
31346;BME280;21711;49.708;18.568;2022-12-28T09:19:20;97955.66;;;4.98;71.37
31346;BME280;21711;49.708;18.568;2022-12-28T09:21:48;97942.28;;;4.87;73.13
31346;BME280;21711;49.708;18.568;2022-12-28T09:24:18;97945.19;;;4.98;73.94
31346;BME280;21711;49.708;18.568;2022-12-28T09:26:46;97947.00;;;5.16;73.54
31346;BME280;21711;49.708;18.568;2022-12-28T09:29:14;97944.53;;;5.03;73.40
31346;BME280;21711;49.708;18.568;2022-12-28T09:31:42;97943.94;;;5.19;73.05
31346;BME280;21711;49.708;18.568;2022-12-28T09:34:11;97948.94;;;5.39;72.29
31346;BME280;21711;49.708;18.568;2022-12-28T09:36:59;97942.22;;;5.44;73.08
31346;BME280;21711;49.708;18.568;2022-12-28T09:39:27;97946.88;;;5.42;72.64
31346;BME280;21711;49.708;18.568;2022-12-28T09:45:05;97949.69;;;5.89;71.26
31346;BME280;21711;49.708;18.568;2022-12-28T09:53:25;97946.09;;;6.74;68.89
31346;BME280;21711;49.708;18.568;2022-12-28T09:58:51;97934.19;;;6.95;66.73
31346;BME280;21711;49.708;18.568;2022-12-28T10:01:20;97939.88;;;6.92;66.70
31346;BME280;21711;49.708;18.568;2022-12-28T10:03:48;97930.63;;;7.31;66.77
31346;BME280;21711;49.708;18.568;2022-12-28T10:06:26;97928.50;;;7.57;66.06
31346;BME280;21711;49.708;18.568;2022-12-28T10:08:57;97930.41;;;7.61;65.62
31346;BME280;21711;49.708;18.568;2022-12-28T10:11:27;97927.09;;;7.37;66.85
31346;BME280;21711;49.708;18.568;2022-12-28T10:13:59;97916.78;;;7.35;68.64
31346;BME280;21711;49.708;18.568;2022-12-28T10:16:29;97920.13;;;7.31;66.80
31346;BME280;21711;49.708;18.568;2022-12-28T10:18:59;97923.81;;;7.47;66.71
31346;BME280;21711;49.708;18.568;2022-12-28T10:21:30;97911.28;;;7.66;66.36
31346;BME280;21711;49.708;18.568;2022-12-28T10:24:00;97924.44;;;7.66;66.78
31346;BME280;21711;49.708;18.568;2022-12-28T10:26:50;97918.34;;;7.48;68.73
31346;BME280;21711;49.708;18.568;2022-12-28T10:29:20;97910.84;;;7.28;68.42
31346;BME280;21711;49.708;18.568;2022-12-28T10:32:06;97909.53;;;7.14;66.60
31346;BME280;21711;49.708;18.568;2022-12-28T10:34:36;97904.09;;;7.03;68.60
31346;BME280;21711;49.708;18.568;2022-12-28T10:37:25;97897.66;;;6.70;68.61
31346;BME280;21711;49.708;18.568;2022-12-28T10:39:59;97894.31;;;6.75;66.46
31346;BME280;21711;49.708;18.568;2022-12-28T10:42:42;97881.75;;;6.77;68.36
31346;BME280;21711;49.708;18.568;2022-12-28T10:45:20;97875.16;;;6.62;69.41
31346;BME280;21711;49.708;18.568;2022-12-28T10:47:54;97865.81;;;6.30;70.56
31346;BME280;21711;49.708;18.568;2022-12-28T10:53:41;97861.47;;;6.24;70.37
31346;BME280;21711;49.708;18.568;2022-12-28T10:58:48;97840.78;;;5.92;70.06
31346;BME280;21711;49.708;18.568;2022-12-28T11:01:25;97841.38;;;6.06;69.11
31346;BME280;21711;49.708;18.568;2022-12-28T11:04:25;97841.84;;;6.15;68.56
31346;BME280;21711;49.708;18.568;2022-12-28T11:06:58;97836.34;;;6.16;70.23
31346;BME280;21711;49.708;18.568;2022-12-28T11:09:31;97835.28;;;6.53;69.90
31346;BME280;21711;49.708;18.568;2022-12-28T11:12:24;97826.41;;;6.42;71.08
31346;BME280;21711;49.708;18.568;2022-12-28T11:14:52;97822.59;;;6.62;68.72
31346;BME280;21711;49.708;18.568;2022-12-28T11:17:25;97825.03;;;6.52;68.98
31346;BME280;21711;49.708;18.568;2022-12-28T11:20:18;97822.19;;;6.05;70.92
31346;BME280;21711;49.708;18.568;2022-12-28T11:22:46;97819.34;;;6.07;72.58
31346;BME280;21711;49.708;18.568;2022-12-28T11:25:17;97820.13;;;5.96;69.82
31346;BME280;21711;49.708;18.568;2022-12-28T11:27:46;97829.06;;;6.07;71.38
31346;BME280;21711;49.708;18.568;2022-12-28T11:30:18;97813.75;;;6.03;72.45
31346;BME280;21711;49.708;18.568;2022-12-28T11:32:57;97823.22;;;6.16;75.07
31346;BME280;21711;49.708;18.568;2022-12-28T11:35:31;97813.13;;;6.49;72.38
31346;BME280;21711;49.708;18.568;2022-12-28T11:38:02;97810.22;;;6.63;70.07
31346;BME280;21711;49.708;18.568;2022-12-28T11:40:50;97811.75;;;6.58;69.90
31346;BME280;21711;49.708;18.568;2022-12-28T11:43:47;97800.81;;;6.38;69.88
31346;BME280;21711;49.708;18.568;2022-12-28T11:49:03;97779.97;;;6.07;71.03
31346;BME280;21711;49.708;18.568;2022-12-28T11:51:35;97772.28;;;6.17;72.75
31346;BME280;21711;49.708;18.568;2022-12-28T11:54:37;97770.72;;;6.04;73.41
31346;BME280;21711;49.708;18.568;2022-12-28T11:57:07;97764.31;;;5.88;72.04
31346;BME280;21711;49.708;18.568;2022-12-28T11:59:35;97756.66;;;5.87;73.44
31346;BME280;21711;49.708;18.568;2022-12-28T12:04:52;97755.75;;;5.93;72.19
31346;BME280;21711;49.708;18.568;2022-12-28T12:07:45;97755.75;;;5.93;72.51
31346;BME280;21711;49.708;18.568;2022-12-28T12:10:35;97752.91;;;6.07;72.75
31346;BME280;21711;49.708;18.568;2022-12-28T12:16:03;97753.22;;;5.98;72.22
31346;BME280;21711;49.708;18.568;2022-12-28T12:18:53;97749.03;;;5.85;71.50
31346;BME280;21711;49.708;18.568;2022-12-28T12:21:33;97738.41;;;5.92;72.39
31346;BME280;21711;49.708;18.568;2022-12-28T12:24:19;97744.91;;;6.01;73.36
31346;BME280;21711;49.708;18.568;2022-12-28T12:26:54;97735.09;;;5.97;72.55
31346;BME280;21711;49.708;18.568;2022-12-28T12:29:36;97720.69;;;5.99;71.88
31346;BME280;21711;49.708;18.568;2022-12-28T12:32:25;97728.00;;;5.97;73.24
31346;BME280;21711;49.708;18.568;2022-12-28T12:35:05;97717.53;;;6.09;71.31
31346;BME280;21711;49.708;18.568;2022-12-28T12:37:54;97726.88;;;6.05;72.14
31346;BME280;21711;49.708;18.568;2022-12-28T12:40:54;97707.56;;;6.11;72.49
31346;BME280;21711;49.708;18.568;2022-12-28T12:46:42;97699.09;;;6.21;74.01
31346;BME280;21711;49.708;18.568;2022-12-28T12:49:25;97706.59;;;6.29;73.38
31346;BME280;21711;49.708;18.568;2022-12-28T13:00:14;97699.34;;;6.49;71.23
31346;BME280;21711;49.708;18.568;2022-12-28T13:05:26;97696.50;;;6.50;71.88
31346;BME280;21711;49.708;18.568;2022-12-28T13:07:56;97685.66;;;6.47;72.11
31346;BME280;21711;49.708;18.568;2022-12-28T13:10:33;97692.50;;;6.48;72.36
31346;BME280;21711;49.708;18.568;2022-12-28T13:13:02;97685.66;;;6.47;73.03
31346;BME280;21711;49.708;18.568;2022-12-28T13:15:30;97677.19;;;6.44;71.65
31346;BME280;21711;49.708;18.568;2022-12-28T13:18:26;97674.97;;;6.53;73.57
31346;BME280;21711;49.708;18.568;2022-12-28T13:21:19;97665.69;;;6.63;72.34
31346;BME280;21711;49.708;18.568;2022-12-28T13:23:47;97669.03;;;6.58;73.49
31346;BME280;21711;49.708;18.568;2022-12-28T13:26:16;97671.84;;;6.68;75.18
31346;BME280;21711;49.708;18.568;2022-12-28T13:28:59;97662.00;;;6.47;73.40
31346;BME280;21711;49.708;18.568;2022-12-28T13:31:39;97659.41;;;6.64;74.11
31346;BME280;21711;49.708;18.568;2022-12-28T13:34:28;97655.91;;;6.58;72.83
31346;BME280;21711;49.708;18.568;2022-12-28T13:37:21;97643.00;;;6.74;70.77
31346;BME280;21711;49.708;18.568;2022-12-28T13:39:48;97644.09;;;6.61;72.04
31346;BME280;21711;49.708;18.568;2022-12-28T13:42:20;97644.63;;;6.92;74.02
31346;BME280;21711;49.708;18.568;2022-12-28T13:44:56;97645.41;;;7.09;71.70
31346;BME280;21711;49.708;18.568;2022-12-28T13:47:39;97645.56;;;7.03;71.92
31346;BME280;21711;49.708;18.568;2022-12-28T13:53:08;97645.47;;;6.97;72.82
31346;BME280;21711;49.708;18.568;2022-12-28T13:55:44;97643.66;;;6.98;72.52
31346;BME280;21711;49.708;18.568;2022-12-28T13:58:21;97646.06;;;7.00;72.64
31346;BME280;21711;49.708;18.568;2022-12-28T14:00:51;97647.00;;;6.93;72.44
31346;BME280;21711;49.708;18.568;2022-12-28T14:03:20;97645.41;;;6.92;72.66
31346;BME280;21711;49.708;18.568;2022-12-28T14:05:52;97642.47;;;6.71;72.27
31346;BME280;21711;49.708;18.568;2022-12-28T14:08:27;97645.34;;;6.41;73.90
31346;BME280;21711;49.708;18.568;2022-12-28T14:10:55;97646.50;;;6.16;73.99
31346;BME280;21711;49.708;18.568;2022-12-28T14:13:24;97645.72;;;6.03;74.56
31346;BME280;21711;49.708;18.568;2022-12-28T14:15:53;97650.88;;;5.86;74.58
31346;BME280;21711;49.708;18.568;2022-12-28T14:18:21;97660.69;;;5.79;75.48
31346;BME280;21711;49.708;18.568;2022-12-28T14:20:54;97658.66;;;5.69;75.50
31346;BME280;21711;49.708;18.568;2022-12-28T14:25:53;97677.03;;;5.69;76.39
31346;BME280;21711;49.708;18.568;2022-12-28T14:28:42;97667.91;;;5.60;76.08
31346;BME280;21711;49.708;18.568;2022-12-28T14:31:12;97661.97;;;5.64;75.87
31346;BME280;21711;49.708;18.568;2022-12-28T14:36:20;97662.34;;;5.44;76.40
31346;BME280;21711;49.708;18.568;2022-12-28T14:38:51;97655.72;;;5.30;75.48
31346;BME280;21711;49.708;18.568;2022-12-28T14:41:35;97654.22;;;5.34;76.72
31346;BME280;21711;49.708;18.568;2022-12-28T14:44:13;97648.44;;;5.32;78.12
31346;BME280;21711;49.708;18.568;2022-12-28T14:46:43;97648.44;;;5.20;77.52